createdAt,value
2022-10-11T00:00:07.007Z,3.80
2022-10-11T00:02:34.001Z,3.50
2022-10-11T00:05:00.999Z,3.85
2022-10-11T00:07:28.778Z,3.35
2022-10-11T00:09:55.698Z,3.53
2022-10-11T00:12:22.705Z,3.67
2022-10-11T00:14:49.626Z,3.58
2022-10-11T00:17:16.604Z,4.25
2022-10-11T00:19:44.053Z,3.58
2022-10-11T00:22:11.251Z,4.22
2022-10-11T00:24:38.236Z,4.53
2022-10-11T00:27:05.252Z,3.42
2022-10-11T00:29:32.263Z,3.72
2022-10-11T00:31:59.336Z,4.15
2022-10-11T00:34:26.388Z,4.15
2022-10-11T00:36:53.558Z,4.40
2022-10-11T00:39:21.352Z,4.65
2022-10-11T00:41:49.427Z,4.40
2022-10-11T00:44:22.513Z,4.35
2022-10-11T00:47:12.201Z,3.90
2022-10-11T00:50:02.065Z,4.22
2022-10-11T00:52:36.434Z,4.22
2022-10-11T00:55:06.660Z,4.78
2022-10-11T00:57:37.047Z,5.07
2022-10-11T01:00:07.625Z,4.50
2022-10-11T01:02:34.665Z,4.68
2022-10-11T01:05:27.631Z,4.63
2022-10-11T01:07:50.937Z,5.13
2022-10-11T01:10:17.995Z,5.20
2022-10-11T01:13:17.405Z,4.18
2022-10-11T01:15:51.219Z,4.97
2022-10-11T01:18:56.724Z,5.07
2022-10-11T01:21:35.475Z,5.07
2022-10-11T01:24:27.346Z,5.10
2022-10-11T01:27:27.964Z,4.90
2022-10-11T01:30:13.209Z,4.63
2022-10-11T01:32:49.318Z,5.03
2022-10-11T01:35:35.134Z,4.25
2022-10-11T01:38:13.472Z,4.63
2022-10-11T01:40:49.039Z,4.20
2022-10-11T01:43:17.184Z,4.28
2022-10-11T01:45:45.399Z,4.65
2022-10-11T01:48:14.119Z,4.97
2022-10-11T01:50:55.146Z,4.70
2022-10-11T01:53:28.088Z,4.78
2022-10-11T01:56:05.980Z,4.93
2022-10-11T01:59:38.726Z,4.78
2022-10-11T02:02:27.608Z,5.20
2022-10-11T02:05:23.664Z,5.30
2022-10-11T02:07:50.597Z,5.03
2022-10-11T02:10:33.132Z,5.75
2022-10-11T02:13:13.053Z,5.18
2022-10-11T02:15:43.073Z,5.25
2022-10-11T02:18:24.480Z,5.55
2022-10-11T02:20:53.215Z,5.35
2022-10-11T02:23:29.864Z,4.72
2022-10-11T02:25:57.888Z,5.20
2022-10-11T02:28:29.629Z,4.95
2022-10-11T02:30:58.380Z,4.47
2022-10-11T02:33:33.048Z,5.05
2022-10-11T02:36:08.036Z,4.25
2022-10-11T02:38:40.460Z,4.68
2022-10-11T02:41:32.504Z,4.83
2022-10-11T02:44:07.895Z,4.32
2022-10-11T02:46:35.924Z,5.05
2022-10-11T02:49:03.921Z,4.68
2022-10-11T02:51:32.075Z,4.15
2022-10-11T02:53:59.803Z,4.28
2022-10-11T02:56:26.677Z,4.88
2022-10-11T02:58:53.690Z,4.82
2022-10-11T03:01:20.854Z,4.53
2022-10-11T03:03:48.036Z,4.93
2022-10-11T03:06:14.961Z,4.22
2022-10-11T03:08:41.942Z,4.70
2022-10-11T03:11:09.152Z,4.80
2022-10-11T03:13:36.103Z,4.68
2022-10-11T03:16:03.880Z,4.70
2022-10-11T03:18:31.626Z,4.88
2022-10-11T03:20:58.672Z,4.60
2022-10-11T03:23:25.778Z,4.72
2022-10-11T03:25:52.996Z,4.70
2022-10-11T03:28:20.812Z,4.95
2022-10-11T03:30:49.300Z,5.13
2022-10-11T03:33:17.272Z,4.38
2022-10-11T03:35:46.061Z,4.70
2022-10-11T03:38:15.720Z,5.20
2022-10-11T03:40:43.203Z,4.53
2022-10-11T03:43:11.118Z,4.82
2022-10-11T03:45:38.300Z,5.38
2022-10-11T03:48:05.428Z,5.38
2022-10-11T03:50:32.389Z,5.60
2022-10-11T03:52:59.375Z,4.45
2022-10-11T03:55:26.481Z,5.28
2022-10-11T03:57:53.402Z,5.18
2022-10-11T04:00:20.557Z,4.95
2022-10-11T04:02:47.511Z,5.63
2022-10-11T04:05:14.617Z,4.95
2022-10-11T04:07:41.760Z,5.07
2022-10-11T04:10:08.970Z,4.65
2022-10-11T04:12:38.423Z,5.40
2022-10-11T04:15:06.873Z,5.47
2022-10-11T04:17:34.229Z,4.75
2022-10-11T04:20:01.184Z,4.97
2022-10-11T04:22:28.195Z,4.88
2022-10-11T04:24:55.102Z,5.18
2022-10-11T04:27:22.055Z,5.38
2022-10-11T04:29:48.958Z,4.97
2022-10-11T04:32:16.142Z,6.05
2022-10-11T04:34:43.226Z,4.57
2022-10-11T04:37:10.260Z,4.50
2022-10-11T04:39:38.196Z,4.90
2022-10-11T04:42:05.692Z,4.88
2022-10-11T04:44:32.818Z,5.80
2022-10-11T04:46:59.934Z,4.72
2022-10-11T04:49:27.150Z,6.05
2022-10-11T04:51:54.674Z,7.03
2022-10-11T04:54:21.871Z,5.60
2022-10-11T04:56:48.940Z,6.13
2022-10-11T04:59:16.158Z,6.18
2022-10-11T05:01:43.293Z,5.70
2022-10-11T05:04:10.260Z,5.57
2022-10-11T05:06:37.309Z,5.10
2022-10-11T05:09:12.219Z,6.00
2022-10-11T05:11:39.226Z,5.35
2022-10-11T05:14:06.190Z,5.50
2022-10-11T05:16:33.089Z,5.25
2022-10-11T05:19:00.001Z,5.45
2022-10-11T05:21:29.741Z,5.03
2022-10-11T05:23:57.523Z,4.80
2022-10-11T05:26:27.730Z,4.63
2022-10-11T05:28:55.986Z,5.07
2022-10-11T05:31:24.176Z,7.00
2022-10-11T05:33:51.199Z,6.70
2022-10-11T05:36:18.280Z,6.65
2022-10-11T05:38:45.356Z,5.40
2022-10-11T05:41:16.128Z,5.10
2022-10-11T05:43:44.545Z,4.63
2022-10-11T05:46:12.594Z,5.00
2022-10-11T05:48:39.913Z,5.03
2022-10-11T05:51:09.967Z,5.07
2022-10-11T05:53:38.373Z,5.50
2022-10-11T05:56:06.259Z,5.57
2022-10-11T05:58:33.771Z,5.57
2022-10-11T06:01:01.197Z,6.15
2022-10-11T06:03:28.919Z,5.57
2022-10-11T06:05:57.347Z,5.28
2022-10-11T06:08:24.441Z,5.57
2022-10-11T06:10:51.497Z,5.70
2022-10-11T06:13:18.933Z,5.25
2022-10-11T06:15:45.927Z,5.63
2022-10-11T06:18:12.866Z,5.47
2022-10-11T06:20:40.164Z,5.55
2022-10-11T06:23:07.321Z,6.18
2022-10-11T06:25:34.554Z,7.22
2022-10-11T06:28:01.375Z,7.95
2022-10-11T06:30:28.429Z,8.15
2022-10-11T06:32:55.373Z,7.75
2022-10-11T06:35:22.393Z,9.65
2022-10-11T06:37:49.414Z,9.93
2022-10-11T06:40:16.590Z,9.65
2022-10-11T06:42:48.789Z,9.05
2022-10-11T06:45:16.201Z,7.75
2022-10-11T06:47:43.270Z,8.32
2022-10-11T06:50:10.183Z,8.02
2022-10-11T06:52:37.175Z,7.40
2022-10-11T06:55:04.309Z,6.82
2022-10-11T06:57:31.208Z,6.65
2022-10-11T06:59:58.266Z,6.13
2022-10-11T07:02:25.161Z,6.15
2022-10-11T07:04:52.177Z,4.82
2022-10-11T07:07:19.468Z,5.88
2022-10-11T07:09:46.583Z,5.22
2022-10-11T07:12:13.544Z,5.28
2022-10-11T07:14:40.609Z,5.82
2022-10-11T07:17:07.865Z,5.00
2022-10-11T07:19:34.945Z,4.55
2022-10-11T07:22:01.946Z,5.28
2022-10-11T07:24:29.135Z,5.25
2022-10-11T07:26:56.549Z,5.25
2022-10-11T07:29:23.732Z,5.40
2022-10-11T07:31:51.016Z,5.35
2022-10-11T07:34:20.241Z,5.47
2022-10-11T07:36:47.178Z,5.22
2022-10-11T07:39:15.668Z,5.97
2022-10-11T07:41:45.817Z,6.03
2022-10-11T07:44:13.973Z,6.88
2022-10-11T07:46:40.835Z,6.28
2022-10-11T07:49:07.695Z,6.18
2022-10-11T07:51:34.583Z,6.22
2022-10-11T07:54:06.978Z,7.07
2022-10-11T07:56:34.679Z,7.80
2022-10-11T07:59:05.298Z,7.88
2022-10-11T08:01:32.908Z,6.00
2022-10-11T08:04:00.398Z,6.68
2022-10-11T08:06:37.279Z,6.95
2022-10-11T08:09:05.701Z,8.38
2022-10-11T08:11:36.661Z,8.40
2022-10-11T08:14:08.504Z,7.63
2022-10-11T08:16:36.907Z,7.80
2022-10-11T08:19:04.271Z,7.20
2022-10-11T08:21:32.359Z,7.68
2022-10-11T08:23:59.451Z,8.57
2022-10-11T08:26:26.563Z,7.97
2022-10-11T08:28:53.579Z,7.85
2022-10-11T08:31:20.892Z,7.70
2022-10-11T08:33:48.139Z,8.55
2022-10-11T08:36:15.134Z,9.73
2022-10-11T08:38:42.399Z,8.48
2022-10-11T08:41:37.516Z,9.30
2022-10-11T08:45:09.458Z,8.77
2022-10-11T08:47:40.674Z,8.88
2022-10-11T08:50:18.339Z,8.55
2022-10-11T08:52:56.410Z,8.38
2022-10-11T08:55:39.827Z,8.30
2022-10-11T08:58:09.179Z,7.60
2022-10-11T09:00:38.275Z,7.35
2022-10-11T09:03:11.201Z,8.95
2022-10-11T09:06:16.512Z,8.95
2022-10-11T09:09:14.098Z,6.72
2022-10-11T09:11:58.906Z,7.68
2022-10-11T09:14:40.178Z,7.63
2022-10-11T09:17:44.181Z,6.38
2022-10-11T09:20:23.513Z,6.10
2022-10-11T09:23:12.906Z,7.13
2022-10-11T09:25:54.850Z,6.55
2022-10-11T09:28:34.032Z,6.68
2022-10-11T09:31:01.309Z,6.03
2022-10-11T09:33:39.072Z,6.47
2022-10-11T09:36:34.757Z,5.53
2022-10-11T09:39:22.629Z,6.30
2022-10-11T09:41:59.075Z,5.63
2022-10-11T09:44:32.829Z,4.93
2022-10-11T09:47:00.172Z,4.85
2022-10-11T09:49:37.449Z,5.22
2022-10-11T09:52:07.468Z,5.38
2022-10-11T09:55:03.318Z,4.60
2022-10-11T09:57:32.731Z,5.03
2022-10-11T10:00:05.823Z,4.63
2022-10-11T10:02:48.817Z,4.63
2022-10-11T10:05:22.165Z,4.20
2022-10-11T10:08:07.099Z,4.43
2022-10-11T10:10:44.198Z,3.90
2022-10-11T10:13:22.812Z,4.53
2022-10-11T10:15:53.591Z,5.32
2022-10-11T10:18:34.257Z,4.68
2022-10-11T10:21:02.625Z,3.45
2022-10-11T10:23:34.945Z,4.70
2022-10-11T10:28:39.331Z,5.72
2022-10-11T10:31:22.074Z,6.60
2022-10-11T10:33:53.201Z,6.78
2022-10-11T10:36:32.760Z,5.97
2022-10-11T10:39:28.186Z,3.83
2022-10-11T10:41:56.177Z,3.15
2022-10-11T10:44:23.455Z,3.08
2022-10-11T10:46:58.848Z,2.33
2022-10-11T10:49:53.005Z,3.00
2022-10-11T10:52:32.096Z,2.40
2022-10-11T10:55:22.175Z,2.35
2022-10-11T10:58:26.419Z,2.15
2022-10-11T11:01:02.562Z,1.73
2022-10-11T11:03:41.974Z,1.80
2022-10-11T11:06:42.290Z,1.33
2022-10-11T11:09:20.029Z,2.10
2022-10-11T11:12:05.324Z,2.28
2022-10-11T11:14:49.118Z,2.10
2022-10-11T11:17:44.362Z,1.92
2022-10-11T11:20:30.325Z,1.25
2022-10-11T11:23:08.250Z,1.80
2022-10-11T11:25:54.386Z,1.70
2022-10-11T11:28:42.713Z,3.33
2022-10-11T11:31:30.263Z,1.90
2022-10-11T11:34:20.803Z,2.20
2022-10-11T11:37:04.435Z,1.90
2022-10-11T11:39:34.676Z,1.83
2022-10-11T11:42:21.429Z,1.55
2022-10-11T11:44:50.800Z,1.65
2022-10-11T11:47:38.056Z,1.52
2022-10-11T11:50:25.138Z,2.47
2022-10-11T11:52:57.890Z,1.58
2022-10-11T11:55:53.830Z,1.40
2022-10-11T11:58:37.483Z,1.83
2022-10-11T12:01:15.404Z,1.83
2022-10-11T12:03:48.147Z,1.30
2022-10-11T12:06:15.116Z,1.88
2022-10-11T12:08:46.684Z,1.40
2022-10-11T12:11:34.618Z,1.55
2022-10-11T12:14:24.897Z,1.50
2022-10-11T12:17:20.340Z,1.50
2022-10-11T12:20:08.487Z,1.40
2022-10-11T12:22:37.747Z,1.27
2022-10-11T12:25:13.794Z,1.38
2022-10-11T12:27:52.173Z,1.20
2022-10-11T12:30:47.176Z,1.40
2022-10-11T12:33:32.595Z,1.95
2022-10-11T12:36:04.083Z,1.88
2022-10-11T12:38:35.692Z,2.28
2022-10-11T12:41:13.369Z,1.70
2022-10-11T12:43:49.393Z,2.35
2022-10-11T12:46:28.720Z,2.13
2022-10-11T12:49:19.170Z,1.88
2022-10-11T12:52:17.893Z,1.70
2022-10-11T12:55:18.443Z,1.65
2022-10-11T12:58:08.977Z,2.20
2022-10-11T13:01:09.998Z,1.65
2022-10-11T13:03:42.125Z,2.40
2022-10-11T13:06:21.702Z,2.22
2022-10-11T13:09:14.234Z,2.20
2022-10-11T13:11:52.459Z,1.98
2022-10-11T13:14:26.101Z,1.88
2022-10-11T13:17:26.680Z,1.83
2022-10-11T13:20:30.568Z,1.67
2022-10-11T13:22:58.449Z,1.98
2022-10-11T13:25:27.106Z,1.88
2022-10-11T13:27:57.368Z,1.73
2022-10-11T13:30:34.300Z,2.10
2022-10-11T13:33:05.985Z,1.77
2022-10-11T13:35:36.844Z,2.20
2022-10-11T13:40:51.274Z,2.10
2022-10-11T13:43:23.530Z,2.75
2022-10-11T13:45:50.599Z,2.00
2022-10-11T13:48:17.749Z,2.25
2022-10-11T13:50:52.339Z,2.13
2022-10-11T13:53:19.452Z,2.55
2022-10-11T13:56:19.149Z,1.98
2022-10-11T13:58:48.584Z,1.95
2022-10-11T14:01:19.006Z,2.72
2022-10-11T14:03:49.197Z,2.28
2022-10-11T14:06:16.429Z,1.63
2022-10-11T14:08:48.065Z,1.90
2022-10-11T14:11:16.265Z,1.95
2022-10-11T14:13:44.660Z,2.42
2022-10-11T14:16:30.290Z,1.88
2022-10-11T14:19:00.412Z,1.63
2022-10-11T14:21:47.370Z,2.10
2022-10-11T14:24:15.036Z,1.95
2022-10-11T14:26:45.311Z,1.85
2022-10-11T14:29:30.918Z,1.73
2022-10-11T14:32:04.063Z,1.80
2022-10-11T14:34:32.216Z,2.00
2022-10-11T14:36:59.125Z,1.67
2022-10-11T14:39:28.325Z,1.48
2022-10-11T14:41:55.694Z,1.60
2022-10-11T14:44:23.955Z,2.00
2022-10-11T14:46:54.343Z,1.40
2022-10-11T14:49:27.333Z,1.67
2022-10-11T14:51:56.065Z,1.80
2022-10-11T14:54:25.334Z,1.27
2022-10-11T14:56:54.234Z,1.63
2022-10-11T14:59:24.305Z,1.70
2022-10-11T15:01:53.799Z,1.80
2022-10-11T15:04:21.878Z,1.70
2022-10-11T15:06:49.321Z,1.38
2022-10-11T15:09:17.350Z,1.40
2022-10-11T15:11:44.570Z,1.77
2022-10-11T15:14:11.592Z,1.88
2022-10-11T15:16:40.198Z,1.70
2022-10-11T15:19:14.045Z,1.58
2022-10-11T15:21:40.922Z,2.10
2022-10-11T15:24:08.117Z,1.40
2022-10-11T15:26:35.497Z,1.52
2022-10-11T15:29:02.916Z,1.58
2022-10-11T15:31:30.151Z,1.60
2022-10-11T15:33:59.623Z,1.48
2022-10-11T15:36:26.722Z,1.55
2022-10-11T15:38:53.663Z,2.00
2022-10-11T15:41:20.754Z,1.73
2022-10-11T15:43:49.194Z,1.73
2022-10-11T15:46:19.845Z,1.58
2022-10-11T18:25:34.465Z,6.15
2022-10-11T18:28:01.489Z,7.22
2022-10-11T18:30:28.663Z,7.90
2022-10-11T18:32:55.873Z,6.38
2022-10-11T18:35:27.960Z,7.65
2022-10-11T18:38:00.710Z,5.80
2022-10-11T18:40:28.130Z,6.30
2022-10-11T18:42:55.137Z,5.13
2022-10-11T18:45:22.145Z,6.50
2022-10-11T18:47:51.904Z,6.68
2022-10-11T18:50:20.292Z,7.22
2022-10-11T18:52:48.659Z,6.50
2022-10-11T18:55:15.951Z,5.80
2022-10-11T18:57:43.847Z,6.28
2022-10-11T19:00:23.325Z,6.25
2022-10-11T19:02:58.493Z,5.75
2022-10-11T19:05:25.705Z,5.45
2022-10-11T19:07:52.626Z,5.72
2022-10-11T19:10:19.508Z,5.40
2022-10-11T19:12:46.379Z,4.97
2022-10-11T19:15:13.338Z,4.45
2022-10-11T19:17:41.813Z,5.38
2022-10-11T19:20:09.237Z,5.05
2022-10-11T19:22:36.358Z,5.40
2022-10-11T19:25:03.490Z,4.82
2022-10-11T19:27:30.613Z,5.35
2022-10-11T19:29:57.764Z,6.00
2022-10-11T19:32:24.812Z,5.80
2022-10-11T19:34:52.201Z,5.53
2022-10-11T19:37:19.187Z,5.72
2022-10-11T19:39:46.096Z,5.47
2022-10-11T19:42:13.170Z,5.18
2022-10-11T19:44:40.332Z,5.22
2022-10-11T19:47:10.060Z,6.35
2022-10-11T19:49:37.442Z,6.57
2022-10-11T19:52:05.712Z,6.68
2022-10-11T19:54:33.118Z,6.20
2022-10-11T19:57:00.148Z,6.95
2022-10-11T19:59:28.083Z,6.20
2022-10-11T20:01:55.172Z,6.78
2022-10-11T20:07:10.044Z,6.15
2022-10-11T20:09:37.061Z,6.57
2022-10-11T20:12:04.367Z,5.47
2022-10-11T20:14:31.485Z,6.50
2022-10-11T20:16:58.341Z,5.88
2022-10-11T20:19:31.222Z,5.88
2022-10-11T20:21:59.830Z,6.15
2022-10-11T20:24:29.128Z,5.93
2022-10-11T20:26:56.195Z,5.80
2022-10-11T20:29:25.519Z,7.20
2022-10-11T20:31:52.998Z,6.13
2022-10-11T20:34:20.327Z,5.40
2022-10-11T20:36:49.305Z,5.45
2022-10-11T20:39:17.216Z,5.97
2022-10-11T20:41:44.104Z,6.28
2022-10-11T20:44:13.358Z,6.57
2022-10-11T20:46:40.417Z,5.50
2022-10-11T20:49:10.427Z,6.05
2022-10-11T20:51:39.396Z,5.25
2022-10-11T20:54:06.420Z,6.25
2022-10-11T20:56:33.998Z,8.57
2022-10-11T20:59:01.493Z,7.53
2022-10-11T21:01:31.892Z,7.15
2022-10-11T21:04:00.700Z,7.68
2022-10-11T21:06:28.942Z,8.25
2022-10-11T21:08:56.861Z,8.15
2022-10-11T21:11:27.747Z,7.97
2022-10-11T21:14:01.285Z,8.18
2022-10-11T21:16:29.279Z,8.05
2022-10-11T21:18:58.360Z,8.43
2022-10-11T21:21:29.593Z,8.20
2022-10-11T21:24:01.643Z,8.80
2022-10-11T21:26:29.737Z,9.43
2022-10-11T21:28:59.130Z,9.18
2022-10-11T21:31:31.039Z,8.18
2022-10-11T21:34:01.059Z,8.43
2022-10-11T21:36:28.414Z,9.00
2022-10-11T21:38:56.150Z,8.02
2022-10-11T21:41:25.911Z,7.00
2022-10-11T21:43:53.844Z,7.45
2022-10-11T21:46:47.636Z,7.93
2022-10-11T21:49:14.353Z,7.22
2022-10-11T21:51:42.408Z,6.85
2022-10-11T21:54:09.761Z,6.75
2022-10-11T21:56:36.625Z,6.97
2022-10-11T21:59:06.561Z,7.65
2022-10-11T22:01:39.781Z,7.53
2022-10-11T22:04:09.876Z,7.57
2022-10-11T22:06:37.994Z,8.52
2022-10-11T22:09:06.535Z,10.07
2022-10-11T22:11:33.502Z,10.95
2022-10-11T22:14:00.384Z,9.68
2022-10-11T22:16:27.486Z,7.90
2022-10-11T22:18:54.438Z,7.15
2022-10-11T22:21:23.289Z,7.07
2022-10-11T22:23:54.655Z,7.15
2022-10-11T22:26:28.287Z,6.43
2022-10-11T22:29:22.069Z,6.35
2022-10-11T22:31:49.346Z,6.70
2022-10-11T22:34:16.370Z,6.28
2022-10-11T22:36:43.369Z,5.63
2022-10-11T22:39:11.375Z,5.25
2022-10-11T22:41:38.313Z,4.90
2022-10-11T22:44:06.702Z,5.13
2022-10-11T22:46:33.970Z,5.40
2022-10-11T22:49:02.796Z,5.35
2022-10-11T22:51:29.845Z,5.50
2022-10-11T22:53:57.379Z,6.07
2022-10-11T22:56:24.759Z,5.68
2022-10-11T22:58:51.950Z,5.43
2022-10-11T23:01:18.917Z,5.00
2022-10-11T23:03:50.817Z,5.60
2022-10-11T23:06:18.243Z,6.10
2022-10-11T23:08:45.477Z,5.68
2022-10-11T23:11:12.811Z,6.07
2022-10-11T23:13:40.215Z,5.80
2022-10-11T23:16:09.889Z,5.82
2022-10-11T23:18:37.351Z,5.53
2022-10-11T23:21:05.268Z,5.90
2022-10-11T23:23:33.080Z,5.32
2022-10-11T23:26:07.020Z,5.05
2022-10-11T23:28:35.542Z,4.85
2022-10-11T23:31:08.304Z,6.47
2022-10-11T23:33:35.668Z,5.97
2022-10-11T23:36:02.952Z,4.90
2022-10-11T23:38:31.285Z,5.70
2022-10-11T23:40:58.497Z,6.05
2022-10-11T23:43:25.685Z,5.75
2022-10-11T23:45:55.121Z,5.07
2022-10-11T23:48:22.276Z,5.40
2022-10-11T23:50:49.312Z,5.70
2022-10-11T23:53:16.553Z,4.85
2022-10-11T23:55:43.803Z,5.45
2022-10-11T23:58:11.169Z,5.18
